sensor_id;sensor_type;location;lat;lon;timestamp;temperature;humidity
21001;DHT22;10658;50.920;12.238;2024-03-29T00:03:50;6.80;99.90
21001;DHT22;10658;50.920;12.238;2024-03-29T00:07:53;6.70;99.90
21001;DHT22;10658;50.920;12.238;2024-03-29T00:11:54;6.70;99.90
21001;DHT22;10658;50.920;12.238;2024-03-29T00:15:55;6.80;99.90
21001;DHT22;10658;50.920;12.238;2024-03-29T00:19:55;7.00;99.90
21001;DHT22;10658;50.920;12.238;2024-03-29T00:23:56;7.00;99.90
21001;DHT22;10658;50.920;12.238;2024-03-29T00:27:57;7.00;99.90
21001;DHT22;10658;50.920;12.238;2024-03-29T00:31:57;6.90;99.90
21001;DHT22;10658;50.920;12.238;2024-03-29T00:35:58;6.90;99.90
21001;DHT22;10658;50.920;12.238;2024-03-29T00:39:59;6.80;99.90
21001;DHT22;10658;50.920;12.238;2024-03-29T00:43:59;6.70;99.90
21001;DHT22;10658;50.920;12.238;2024-03-29T00:48:00;6.50;99.90
21001;DHT22;10658;50.920;12.238;2024-03-29T00:52:02;6.50;99.90
21001;DHT22;10658;50.920;12.238;2024-03-29T00:56:03;6.50;99.90
21001;DHT22;10658;50.920;12.238;2024-03-29T01:00:05;6.50;99.90
21001;DHT22;10658;50.920;12.238;2024-03-29T01:04:06;6.60;99.90
21001;DHT22;10658;50.920;12.238;2024-03-29T01:08:06;6.50;99.90
21001;DHT22;10658;50.920;12.238;2024-03-29T01:12:07;6.50;99.90
21001;DHT22;10658;50.920;12.238;2024-03-29T01:16:08;6.40;99.90
21001;DHT22;10658;50.920;12.238;2024-03-29T01:20:09;6.40;99.90
21001;DHT22;10658;50.920;12.238;2024-03-29T01:24:12;6.30;99.90
21001;DHT22;10658;50.920;12.238;2024-03-29T01:28:12;6.20;99.90
21001;DHT22;10658;50.920;12.238;2024-03-29T01:32:13;6.20;99.90
21001;DHT22;10658;50.920;12.238;2024-03-29T01:36:14;6.20;99.90
21001;DHT22;10658;50.920;12.238;2024-03-29T01:40:15;6.10;99.90
21001;DHT22;10658;50.920;12.238;2024-03-29T01:44:16;6.00;99.90
21001;DHT22;10658;50.920;12.238;2024-03-29T01:48:17;5.90;99.90
21001;DHT22;10658;50.920;12.238;2024-03-29T01:52:19;6.00;99.90
21001;DHT22;10658;50.920;12.238;2024-03-29T01:56:22;6.10;99.90
21001;DHT22;10658;50.920;12.238;2024-03-29T02:00:23;6.30;99.90
21001;DHT22;10658;50.920;12.238;2024-03-29T02:04:26;6.40;99.90
21001;DHT22;10658;50.920;12.238;2024-03-29T02:08:28;6.60;99.90
21001;DHT22;10658;50.920;12.238;2024-03-29T02:12:28;6.50;99.90
21001;DHT22;10658;50.920;12.238;2024-03-29T02:16:29;6.60;99.90
21001;DHT22;10658;50.920;12.238;2024-03-29T02:20:31;6.50;99.90
21001;DHT22;10658;50.920;12.238;2024-03-29T02:24:32;6.60;99.90
21001;DHT22;10658;50.920;12.238;2024-03-29T02:28:34;6.50;99.90
21001;DHT22;10658;50.920;12.238;2024-03-29T02:32:34;6.60;99.90
21001;DHT22;10658;50.920;12.238;2024-03-29T02:36:35;6.60;99.90
21001;DHT22;10658;50.920;12.238;2024-03-29T02:40:37;6.50;99.90
21001;DHT22;10658;50.920;12.238;2024-03-29T02:44:37;6.50;99.90
21001;DHT22;10658;50.920;12.238;2024-03-29T02:48:38;6.40;99.90
21001;DHT22;10658;50.920;12.238;2024-03-29T02:52:39;6.40;99.90
21001;DHT22;10658;50.920;12.238;2024-03-29T02:56:40;6.40;99.90
21001;DHT22;10658;50.920;12.238;2024-03-29T03:00:40;6.30;99.90
21001;DHT22;10658;50.920;12.238;2024-03-29T03:04:41;6.30;99.90
21001;DHT22;10658;50.920;12.238;2024-03-29T03:08:42;6.20;99.90
21001;DHT22;10658;50.920;12.238;2024-03-29T03:13:01;6.10;99.90
21001;DHT22;10658;50.920;12.238;2024-03-29T03:17:02;6.00;99.90
21001;DHT22;10658;50.920;12.238;2024-03-29T03:21:02;5.90;99.90
21001;DHT22;10658;50.920;12.238;2024-03-29T03:25:03;5.90;99.90
21001;DHT22;10658;50.920;12.238;2024-03-29T03:29:05;5.80;99.90
21001;DHT22;10658;50.920;12.238;2024-03-29T03:33:06;5.90;99.90
21001;DHT22;10658;50.920;12.238;2024-03-29T03:37:06;6.00;99.90
21001;DHT22;10658;50.920;12.238;2024-03-29T03:41:07;5.90;99.90
21001;DHT22;10658;50.920;12.238;2024-03-29T03:45:08;5.90;99.90
21001;DHT22;10658;50.920;12.238;2024-03-29T03:49:09;5.90;99.90
21001;DHT22;10658;50.920;12.238;2024-03-29T03:53:10;5.90;99.90
21001;DHT22;10658;50.920;12.238;2024-03-29T03:57:10;5.90;99.90
21001;DHT22;10658;50.920;12.238;2024-03-29T04:01:11;5.80;99.90
21001;DHT22;10658;50.920;12.238;2024-03-29T04:05:12;5.80;99.90
21001;DHT22;10658;50.920;12.238;2024-03-29T04:09:16;5.80;99.90
21001;DHT22;10658;50.920;12.238;2024-03-29T04:13:18;5.90;99.90
21001;DHT22;10658;50.920;12.238;2024-03-29T04:17:22;5.90;99.90
21001;DHT22;10658;50.920;12.238;2024-03-29T04:21:22;6.00;99.90
21001;DHT22;10658;50.920;12.238;2024-03-29T04:25:23;6.00;99.90
21001;DHT22;10658;50.920;12.238;2024-03-29T04:29:24;6.00;99.90
21001;DHT22;10658;50.920;12.238;2024-03-29T04:33:25;6.10;99.90
21001;DHT22;10658;50.920;12.238;2024-03-29T04:37:26;6.10;99.90
21001;DHT22;10658;50.920;12.238;2024-03-29T04:41:27;6.10;99.90
21001;DHT22;10658;50.920;12.238;2024-03-29T04:45:28;6.10;99.90
21001;DHT22;10658;50.920;12.238;2024-03-29T04:49:28;6.10;99.90
21001;DHT22;10658;50.920;12.238;2024-03-29T04:53:35;6.10;99.90
21001;DHT22;10658;50.920;12.238;2024-03-29T04:57:37;6.20;99.90
21001;DHT22;10658;50.920;12.238;2024-03-29T05:01:38;6.10;99.90
21001;DHT22;10658;50.920;12.238;2024-03-29T05:05:39;6.20;99.90
21001;DHT22;10658;50.920;12.238;2024-03-29T05:09:40;6.50;99.90
21001;DHT22;10658;50.920;12.238;2024-03-29T05:13:41;6.60;99.90
21001;DHT22;10658;50.920;12.238;2024-03-29T05:17:42;6.80;99.90
21001;DHT22;10658;50.920;12.238;2024-03-29T05:21:43;6.90;99.90
21001;DHT22;10658;50.920;12.238;2024-03-29T05:25:44;7.10;99.90
21001;DHT22;10658;50.920;12.238;2024-03-29T05:29:45;7.30;99.90
21001;DHT22;10658;50.920;12.238;2024-03-29T05:33:46;7.50;99.90
21001;DHT22;10658;50.920;12.238;2024-03-29T05:37:46;7.60;99.90
21001;DHT22;10658;50.920;12.238;2024-03-29T05:41:50;7.60;99.90
21001;DHT22;10658;50.920;12.238;2024-03-29T05:45:54;7.80;99.90
21001;DHT22;10658;50.920;12.238;2024-03-29T05:49:55;7.90;99.90
21001;DHT22;10658;50.920;12.238;2024-03-29T05:53:56;8.00;99.90
21001;DHT22;10658;50.920;12.238;2024-03-29T05:57:57;8.00;99.90
21001;DHT22;10658;50.920;12.238;2024-03-29T06:01:57;8.10;99.90
21001;DHT22;10658;50.920;12.238;2024-03-29T06:05:58;8.10;99.90
21001;DHT22;10658;50.920;12.238;2024-03-29T06:10:00;8.20;99.90
21001;DHT22;10658;50.920;12.238;2024-03-29T06:14:04;8.20;99.90
21001;DHT22;10658;50.920;12.238;2024-03-29T06:18:09;8.30;99.90
21001;DHT22;10658;50.920;12.238;2024-03-29T06:22:11;8.50;99.90
21001;DHT22;10658;50.920;12.238;2024-03-29T06:26:12;8.60;99.90
21001;DHT22;10658;50.920;12.238;2024-03-29T06:30:13;8.70;99.90
21001;DHT22;10658;50.920;12.238;2024-03-29T06:34:14;8.90;99.90
21001;DHT22;10658;50.920;12.238;2024-03-29T06:38:14;8.90;99.90
21001;DHT22;10658;50.920;12.238;2024-03-29T06:42:16;9.10;99.90
21001;DHT22;10658;50.920;12.238;2024-03-29T06:46:16;9.10;99.90
21001;DHT22;10658;50.920;12.238;2024-03-29T06:50:17;9.20;99.90
21001;DHT22;10658;50.920;12.238;2024-03-29T06:54:18;9.20;99.90
21001;DHT22;10658;50.920;12.238;2024-03-29T06:58:25;9.30;99.90
21001;DHT22;10658;50.920;12.238;2024-03-29T07:02:26;9.30;99.90
21001;DHT22;10658;50.920;12.238;2024-03-29T07:07:17;9.40;99.90
21001;DHT22;10658;50.920;12.238;2024-03-29T07:11:18;9.40;99.90
21001;DHT22;10658;50.920;12.238;2024-03-29T07:15:19;9.50;99.90
21001;DHT22;10658;50.920;12.238;2024-03-29T07:19:20;9.50;99.90
21001;DHT22;10658;50.920;12.238;2024-03-29T07:23:21;9.40;99.90
21001;DHT22;10658;50.920;12.238;2024-03-29T07:27:22;9.40;99.90
21001;DHT22;10658;50.920;12.238;2024-03-29T07:31:23;9.40;99.90
21001;DHT22;10658;50.920;12.238;2024-03-29T07:35:24;9.40;99.90
21001;DHT22;10658;50.920;12.238;2024-03-29T07:39:25;9.40;99.90
21001;DHT22;10658;50.920;12.238;2024-03-29T07:43:26;9.50;99.90
21001;DHT22;10658;50.920;12.238;2024-03-29T07:47:26;9.50;99.90
21001;DHT22;10658;50.920;12.238;2024-03-29T07:51:27;9.60;99.90
21001;DHT22;10658;50.920;12.238;2024-03-29T07:55:28;9.60;99.90
21001;DHT22;10658;50.920;12.238;2024-03-29T07:59:28;9.60;99.90
21001;DHT22;10658;50.920;12.238;2024-03-29T08:03:29;9.70;99.90
21001;DHT22;10658;50.920;12.238;2024-03-29T08:07:33;9.70;99.90
21001;DHT22;10658;50.920;12.238;2024-03-29T08:11:34;9.80;99.90
21001;DHT22;10658;50.920;12.238;2024-03-29T08:15:34;9.90;99.90
21001;DHT22;10658;50.920;12.238;2024-03-29T08:19:36;10.00;99.90
21001;DHT22;10658;50.920;12.238;2024-03-29T08:23:38;10.10;99.90
21001;DHT22;10658;50.920;12.238;2024-03-29T08:27:39;10.10;99.90
21001;DHT22;10658;50.920;12.238;2024-03-29T08:31:40;10.20;99.90
21001;DHT22;10658;50.920;12.238;2024-03-29T08:35:41;10.30;99.90
21001;DHT22;10658;50.920;12.238;2024-03-29T08:39:44;10.70;99.90
21001;DHT22;10658;50.920;12.238;2024-03-29T08:43:44;11.00;99.90
21001;DHT22;10658;50.920;12.238;2024-03-29T08:47:46;11.40;99.90
21001;DHT22;10658;50.920;12.238;2024-03-29T08:51:47;11.70;99.90
21001;DHT22;10658;50.920;12.238;2024-03-29T08:55:48;12.00;99.90
21001;DHT22;10658;50.920;12.238;2024-03-29T08:59:49;12.20;99.90
21001;DHT22;10658;50.920;12.238;2024-03-29T09:03:49;12.20;99.90
21001;DHT22;10658;50.920;12.238;2024-03-29T09:07:50;12.30;99.90
21001;DHT22;10658;50.920;12.238;2024-03-29T09:11:51;12.40;99.90
21001;DHT22;10658;50.920;12.238;2024-03-29T09:15:52;12.50;99.90
21001;DHT22;10658;50.920;12.238;2024-03-29T09:19:53;12.60;99.90
21001;DHT22;10658;50.920;12.238;2024-03-29T09:23:54;12.70;99.90
21001;DHT22;10658;50.920;12.238;2024-03-29T09:27:55;12.90;99.90
21001;DHT22;10658;50.920;12.238;2024-03-29T09:31:55;13.10;99.90
21001;DHT22;10658;50.920;12.238;2024-03-29T09:35:56;13.20;99.90
21001;DHT22;10658;50.920;12.238;2024-03-29T09:39:58;13.20;99.90
21001;DHT22;10658;50.920;12.238;2024-03-29T09:43:59;13.20;99.90
21001;DHT22;10658;50.920;12.238;2024-03-29T09:48:08;13.40;99.90
21001;DHT22;10658;50.920;12.238;2024-03-29T09:52:09;13.30;99.90
21001;DHT22;10658;50.920;12.238;2024-03-29T09:56:10;13.50;99.90
21001;DHT22;10658;50.920;12.238;2024-03-29T10:00:12;13.80;99.90
21001;DHT22;10658;50.920;12.238;2024-03-29T10:04:13;13.90;99.90
21001;DHT22;10658;50.920;12.238;2024-03-29T10:08:16;14.00;99.90
21001;DHT22;10658;50.920;12.238;2024-03-29T10:12:17;14.00;99.90
21001;DHT22;10658;50.920;12.238;2024-03-29T10:16:19;14.10;99.90
21001;DHT22;10658;50.920;12.238;2024-03-29T10:20:21;14.30;99.90
21001;DHT22;10658;50.920;12.238;2024-03-29T10:24:23;14.40;99.90
21001;DHT22;10658;50.920;12.238;2024-03-29T10:28:31;14.40;99.90
21001;DHT22;10658;50.920;12.238;2024-03-29T10:32:39;14.20;99.90
21001;DHT22;10658;50.920;12.238;2024-03-29T10:36:43;14.10;99.90
21001;DHT22;10658;50.920;12.238;2024-03-29T10:40:44;14.10;99.90
21001;DHT22;10658;50.920;12.238;2024-03-29T10:44:48;14.30;99.90
21001;DHT22;10658;50.920;12.238;2024-03-29T10:48:49;14.30;99.90
21001;DHT22;10658;50.920;12.238;2024-03-29T10:52:50;14.20;99.90
21001;DHT22;10658;50.920;12.238;2024-03-29T10:57:06;14.20;99.90
21001;DHT22;10658;50.920;12.238;2024-03-29T11:01:11;14.10;99.90
21001;DHT22;10658;50.920;12.238;2024-03-29T11:05:40;14.00;99.90
21001;DHT22;10658;50.920;12.238;2024-03-29T11:09:43;14.00;99.90
21001;DHT22;10658;50.920;12.238;2024-03-29T11:14:05;13.80;99.90
21001;DHT22;10658;50.920;12.238;2024-03-29T11:18:08;13.50;99.90
21001;DHT22;10658;50.920;12.238;2024-03-29T11:22:11;13.40;99.90
21001;DHT22;10658;50.920;12.238;2024-03-29T11:26:12;13.10;99.90
21001;DHT22;10658;50.920;12.238;2024-03-29T11:30:17;12.90;99.90
21001;DHT22;10658;50.920;12.238;2024-03-29T11:34:19;12.80;99.90
21001;DHT22;10658;50.920;12.238;2024-03-29T11:38:20;12.70;99.90
21001;DHT22;10658;50.920;12.238;2024-03-29T11:42:44;12.50;99.90
21001;DHT22;10658;50.920;12.238;2024-03-29T11:46:44;12.30;99.90
21001;DHT22;10658;50.920;12.238;2024-03-29T11:50:46;12.20;99.90
21001;DHT22;10658;50.920;12.238;2024-03-29T11:54:47;12.00;99.90
21001;DHT22;10658;50.920;12.238;2024-03-29T11:58:48;11.90;99.90
21001;DHT22;10658;50.920;12.238;2024-03-29T12:02:49;11.80;99.90
21001;DHT22;10658;50.920;12.238;2024-03-29T12:06:50;11.60;99.90
21001;DHT22;10658;50.920;12.238;2024-03-29T12:10:51;11.50;99.90
21001;DHT22;10658;50.920;12.238;2024-03-29T12:14:51;11.50;99.90
21001;DHT22;10658;50.920;12.238;2024-03-29T12:18:53;11.50;99.90
21001;DHT22;10658;50.920;12.238;2024-03-29T12:22:53;11.50;99.90
21001;DHT22;10658;50.920;12.238;2024-03-29T12:26:55;11.50;99.90
21001;DHT22;10658;50.920;12.238;2024-03-29T12:30:56;11.50;99.90
21001;DHT22;10658;50.920;12.238;2024-03-29T12:35:09;11.50;99.90
21001;DHT22;10658;50.920;12.238;2024-03-29T12:39:13;11.60;99.90
21001;DHT22;10658;50.920;12.238;2024-03-29T12:43:15;11.80;99.90
21001;DHT22;10658;50.920;12.238;2024-03-29T12:47:19;12.10;99.90
21001;DHT22;10658;50.920;12.238;2024-03-29T12:51:20;12.50;99.90
21001;DHT22;10658;50.920;12.238;2024-03-29T12:55:23;12.80;99.90
21001;DHT22;10658;50.920;12.238;2024-03-29T12:59:28;13.20;99.90
21001;DHT22;10658;50.920;12.238;2024-03-29T13:03:29;13.50;99.90
21001;DHT22;10658;50.920;12.238;2024-03-29T13:07:30;13.90;99.90
21001;DHT22;10658;50.920;12.238;2024-03-29T13:11:31;14.20;99.90
21001;DHT22;10658;50.920;12.238;2024-03-29T13:15:34;14.40;99.90
21001;DHT22;10658;50.920;12.238;2024-03-29T13:19:36;14.40;99.90
21001;DHT22;10658;50.920;12.238;2024-03-29T13:23:37;14.40;99.90
21001;DHT22;10658;50.920;12.238;2024-03-29T13:27:42;14.60;99.90
21001;DHT22;10658;50.920;12.238;2024-03-29T13:31:43;14.80;99.90
21001;DHT22;10658;50.920;12.238;2024-03-29T13:35:44;14.90;99.90
21001;DHT22;10658;50.920;12.238;2024-03-29T13:39:46;15.10;99.90
21001;DHT22;10658;50.920;12.238;2024-03-29T13:43:46;15.20;99.90
21001;DHT22;10658;50.920;12.238;2024-03-29T13:47:47;15.20;99.90
21001;DHT22;10658;50.920;12.238;2024-03-29T13:51:48;15.00;99.90
21001;DHT22;10658;50.920;12.238;2024-03-29T13:55:50;14.90;99.90
21001;DHT22;10658;50.920;12.238;2024-03-29T13:59:50;14.90;99.90
21001;DHT22;10658;50.920;12.238;2024-03-29T14:03:51;15.10;99.90
21001;DHT22;10658;50.920;12.238;2024-03-29T14:07:53;15.20;99.90
21001;DHT22;10658;50.920;12.238;2024-03-29T14:11:54;15.30;99.90
21001;DHT22;10658;50.920;12.238;2024-03-29T14:15:55;15.50;99.90
21001;DHT22;10658;50.920;12.238;2024-03-29T14:19:56;15.60;99.90
21001;DHT22;10658;50.920;12.238;2024-03-29T14:23:57;15.70;99.90
21001;DHT22;10658;50.920;12.238;2024-03-29T14:28:01;15.70;99.90
21001;DHT22;10658;50.920;12.238;2024-03-29T14:32:03;15.70;99.90
21001;DHT22;10658;50.920;12.238;2024-03-29T14:36:04;15.60;99.90
21001;DHT22;10658;50.920;12.238;2024-03-29T14:40:05;15.70;99.90
21001;DHT22;10658;50.920;12.238;2024-03-29T14:44:09;15.70;99.90
21001;DHT22;10658;50.920;12.238;2024-03-29T14:48:10;15.80;99.90
21001;DHT22;10658;50.920;12.238;2024-03-29T14:52:11;16.10;99.90
21001;DHT22;10658;50.920;12.238;2024-03-29T14:56:11;16.00;99.90
21001;DHT22;10658;50.920;12.238;2024-03-29T15:00:13;15.90;99.90
21001;DHT22;10658;50.920;12.238;2024-03-29T15:04:14;15.90;99.90
21001;DHT22;10658;50.920;12.238;2024-03-29T15:08:15;16.00;99.90
21001;DHT22;10658;50.920;12.238;2024-03-29T15:12:19;16.00;99.90
21001;DHT22;10658;50.920;12.238;2024-03-29T15:16:20;16.00;99.90
21001;DHT22;10658;50.920;12.238;2024-03-29T15:20:21;16.10;99.90
21001;DHT22;10658;50.920;12.238;2024-03-29T15:24:22;16.00;99.90
21001;DHT22;10658;50.920;12.238;2024-03-29T15:28:25;16.00;99.90
21001;DHT22;10658;50.920;12.238;2024-03-29T15:32:44;16.00;99.90
21001;DHT22;10658;50.920;12.238;2024-03-29T15:36:45;15.90;99.90
21001;DHT22;10658;50.920;12.238;2024-03-29T15:40:53;15.70;99.90
21001;DHT22;10658;50.920;12.238;2024-03-29T15:44:54;15.50;99.90
21001;DHT22;10658;50.920;12.238;2024-03-29T15:48:56;15.40;99.90
21001;DHT22;10658;50.920;12.238;2024-03-29T15:52:57;15.30;99.90
21001;DHT22;10658;50.920;12.238;2024-03-29T15:56:58;15.20;99.90
21001;DHT22;10658;50.920;12.238;2024-03-29T16:01:00;15.30;99.90
21001;DHT22;10658;50.920;12.238;2024-03-29T16:05:01;15.20;99.90
21001;DHT22;10658;50.920;12.238;2024-03-29T16:09:02;15.20;99.90
21001;DHT22;10658;50.920;12.238;2024-03-29T16:13:03;15.10;99.90
21001;DHT22;10658;50.920;12.238;2024-03-29T16:17:04;15.00;99.90
21001;DHT22;10658;50.920;12.238;2024-03-29T16:21:05;14.90;99.90
21001;DHT22;10658;50.920;12.238;2024-03-29T16:25:06;14.90;99.90
21001;DHT22;10658;50.920;12.238;2024-03-29T16:29:07;14.80;99.90
21001;DHT22;10658;50.920;12.238;2024-03-29T16:33:12;14.80;99.90
21001;DHT22;10658;50.920;12.238;2024-03-29T16:37:13;14.80;99.90
21001;DHT22;10658;50.920;12.238;2024-03-29T16:41:14;14.80;99.90
21001;DHT22;10658;50.920;12.238;2024-03-29T16:45:14;14.80;99.90
21001;DHT22;10658;50.920;12.238;2024-03-29T16:49:15;14.70;99.90
21001;DHT22;10658;50.920;12.238;2024-03-29T16:53:16;14.70;99.90
21001;DHT22;10658;50.920;12.238;2024-03-29T16:57:17;14.60;99.90
21001;DHT22;10658;50.920;12.238;2024-03-29T17:01:17;14.50;99.90
21001;DHT22;10658;50.920;12.238;2024-03-29T17:05:19;14.40;99.90
21001;DHT22;10658;50.920;12.238;2024-03-29T17:09:37;14.30;99.90
21001;DHT22;10658;50.920;12.238;2024-03-29T17:13:38;14.20;99.90
21001;DHT22;10658;50.920;12.238;2024-03-29T17:17:39;14.10;99.90
21001;DHT22;10658;50.920;12.238;2024-03-29T17:21:40;14.10;99.90
21001;DHT22;10658;50.920;12.238;2024-03-29T17:25:41;14.00;99.90
21001;DHT22;10658;50.920;12.238;2024-03-29T17:29:41;13.90;99.90
21001;DHT22;10658;50.920;12.238;2024-03-29T17:33:42;13.70;99.90
21001;DHT22;10658;50.920;12.238;2024-03-29T17:37:43;13.50;99.90
21001;DHT22;10658;50.920;12.238;2024-03-29T17:41:45;13.40;99.90
21001;DHT22;10658;50.920;12.238;2024-03-29T17:45:46;13.20;99.90
21001;DHT22;10658;50.920;12.238;2024-03-29T17:49:46;13.10;99.90
21001;DHT22;10658;50.920;12.238;2024-03-29T17:53:48;13.00;99.90
21001;DHT22;10658;50.920;12.238;2024-03-29T17:57:49;12.80;99.90
21001;DHT22;10658;50.920;12.238;2024-03-29T18:01:51;12.40;99.90
21001;DHT22;10658;50.920;12.238;2024-03-29T18:05:52;12.30;99.90
21001;DHT22;10658;50.920;12.238;2024-03-29T18:09:52;12.20;99.90
21001;DHT22;10658;50.920;12.238;2024-03-29T18:13:53;12.20;99.90
21001;DHT22;10658;50.920;12.238;2024-03-29T18:17:56;12.30;99.90
21001;DHT22;10658;50.920;12.238;2024-03-29T18:21:57;12.20;99.90
21001;DHT22;10658;50.920;12.238;2024-03-29T18:25:57;12.20;99.90
21001;DHT22;10658;50.920;12.238;2024-03-29T18:29:58;12.20;99.90
21001;DHT22;10658;50.920;12.238;2024-03-29T18:33:59;12.10;99.90
21001;DHT22;10658;50.920;12.238;2024-03-29T18:38:00;12.00;99.90
21001;DHT22;10658;50.920;12.238;2024-03-29T18:42:01;12.00;99.90
21001;DHT22;10658;50.920;12.238;2024-03-29T18:46:05;11.90;99.90
21001;DHT22;10658;50.920;12.238;2024-03-29T18:50:07;11.70;99.90
21001;DHT22;10658;50.920;12.238;2024-03-29T18:54:08;11.60;99.90
21001;DHT22;10658;50.920;12.238;2024-03-29T18:58:08;11.50;99.90
21001;DHT22;10658;50.920;12.238;2024-03-29T19:02:09;11.30;99.90
21001;DHT22;10658;50.920;12.238;2024-03-29T19:06:35;11.20;99.90
21001;DHT22;10658;50.920;12.238;2024-03-29T19:10:36;11.10;99.90
21001;DHT22;10658;50.920;12.238;2024-03-29T19:14:36;11.10;99.90
21001;DHT22;10658;50.920;12.238;2024-03-29T19:18:37;11.00;99.90
21001;DHT22;10658;50.920;12.238;2024-03-29T19:22:38;10.80;99.90
21001;DHT22;10658;50.920;12.238;2024-03-29T19:26:42;10.80;99.90
21001;DHT22;10658;50.920;12.238;2024-03-29T19:30:43;10.70;99.90
21001;DHT22;10658;50.920;12.238;2024-03-29T19:34:44;10.70;99.90
21001;DHT22;10658;50.920;12.238;2024-03-29T19:38:45;10.70;99.90
21001;DHT22;10658;50.920;12.238;2024-03-29T19:42:47;10.60;99.90
21001;DHT22;10658;50.920;12.238;2024-03-29T19:46:48;10.50;99.90
21001;DHT22;10658;50.920;12.238;2024-03-29T19:50:49;10.40;99.90
21001;DHT22;10658;50.920;12.238;2024-03-29T19:54:49;10.10;99.90
21001;DHT22;10658;50.920;12.238;2024-03-29T19:58:50;10.10;99.90
21001;DHT22;10658;50.920;12.238;2024-03-29T20:02:51;10.10;99.90
21001;DHT22;10658;50.920;12.238;2024-03-29T20:06:51;10.00;99.90
21001;DHT22;10658;50.920;12.238;2024-03-29T20:10:52;9.90;99.90
21001;DHT22;10658;50.920;12.238;2024-03-29T20:14:53;9.90;99.90
21001;DHT22;10658;50.920;12.238;2024-03-29T20:18:54;9.90;99.90
21001;DHT22;10658;50.920;12.238;2024-03-29T20:22:57;9.90;99.90
21001;DHT22;10658;50.920;12.238;2024-03-29T20:26:59;9.70;99.90
21001;DHT22;10658;50.920;12.238;2024-03-29T20:31:03;9.70;99.90
21001;DHT22;10658;50.920;12.238;2024-03-29T20:35:04;9.30;99.90
21001;DHT22;10658;50.920;12.238;2024-03-29T20:39:05;9.10;99.90
21001;DHT22;10658;50.920;12.238;2024-03-29T20:43:06;9.00;99.90
21001;DHT22;10658;50.920;12.238;2024-03-29T20:47:08;9.20;99.90
21001;DHT22;10658;50.920;12.238;2024-03-29T20:51:08;9.00;99.90
21001;DHT22;10658;50.920;12.238;2024-03-29T20:55:09;9.10;99.90
21001;DHT22;10658;50.920;12.238;2024-03-29T20:59:10;9.10;99.90
21001;DHT22;10658;50.920;12.238;2024-03-29T21:03:11;9.00;99.90
21001;DHT22;10658;50.920;12.238;2024-03-29T21:07:30;8.80;99.90
21001;DHT22;10658;50.920;12.238;2024-03-29T21:11:31;9.00;99.90
21001;DHT22;10658;50.920;12.238;2024-03-29T21:15:32;9.20;99.90
21001;DHT22;10658;50.920;12.238;2024-03-29T21:19:33;9.20;99.90
21001;DHT22;10658;50.920;12.238;2024-03-29T21:23:34;9.00;99.90
21001;DHT22;10658;50.920;12.238;2024-03-29T21:27:40;8.50;99.90
21001;DHT22;10658;50.920;12.238;2024-03-29T21:31:41;8.40;99.90
21001;DHT22;10658;50.920;12.238;2024-03-29T21:35:42;8.50;99.90
21001;DHT22;10658;50.920;12.238;2024-03-29T21:39:43;8.50;99.90
21001;DHT22;10658;50.920;12.238;2024-03-29T21:43:49;8.40;99.90
21001;DHT22;10658;50.920;12.238;2024-03-29T21:47:50;8.40;99.90
21001;DHT22;10658;50.920;12.238;2024-03-29T21:51:50;8.40;99.90
21001;DHT22;10658;50.920;12.238;2024-03-29T21:55:51;8.40;99.90
21001;DHT22;10658;50.920;12.238;2024-03-29T21:59:52;8.50;99.90
21001;DHT22;10658;50.920;12.238;2024-03-29T22:03:52;8.60;99.90
21001;DHT22;10658;50.920;12.238;2024-03-29T22:07:53;8.70;99.90
21001;DHT22;10658;50.920;12.238;2024-03-29T22:11:54;8.50;99.90
21001;DHT22;10658;50.920;12.238;2024-03-29T22:15:55;8.40;99.90
21001;DHT22;10658;50.920;12.238;2024-03-29T22:19:56;8.50;99.90
21001;DHT22;10658;50.920;12.238;2024-03-29T22:23:56;8.40;99.90
21001;DHT22;10658;50.920;12.238;2024-03-29T22:27:57;8.50;99.90
21001;DHT22;10658;50.920;12.238;2024-03-29T22:31:58;8.50;99.90
21001;DHT22;10658;50.920;12.238;2024-03-29T22:36:00;8.40;99.90
21001;DHT22;10658;50.920;12.238;2024-03-29T22:40:01;8.30;99.90
21001;DHT22;10658;50.920;12.238;2024-03-29T22:44:03;8.30;99.90
21001;DHT22;10658;50.920;12.238;2024-03-29T22:48:05;8.30;99.90
21001;DHT22;10658;50.920;12.238;2024-03-29T22:52:06;8.30;99.90
21001;DHT22;10658;50.920;12.238;2024-03-29T22:56:08;8.30;99.90
21001;DHT22;10658;50.920;12.238;2024-03-29T23:00:09;8.40;99.90
21001;DHT22;10658;50.920;12.238;2024-03-29T23:04:11;8.30;99.90
21001;DHT22;10658;50.920;12.238;2024-03-29T23:08:12;8.50;99.90
21001;DHT22;10658;50.920;12.238;2024-03-29T23:12:12;8.40;99.90
21001;DHT22;10658;50.920;12.238;2024-03-29T23:16:13;8.40;99.90
21001;DHT22;10658;50.920;12.238;2024-03-29T23:20:14;8.40;99.90
21001;DHT22;10658;50.920;12.238;2024-03-29T23:24:15;8.30;99.90
21001;DHT22;10658;50.920;12.238;2024-03-29T23:28:16;8.30;99.90
21001;DHT22;10658;50.920;12.238;2024-03-29T23:32:17;8.00;99.90
21001;DHT22;10658;50.920;12.238;2024-03-29T23:36:17;8.00;99.90
21001;DHT22;10658;50.920;12.238;2024-03-29T23:40:18;8.00;99.90
21001;DHT22;10658;50.920;12.238;2024-03-29T23:44:19;8.10;99.90
21001;DHT22;10658;50.920;12.238;2024-03-29T23:48:20;8.10;99.90
21001;DHT22;10658;50.920;12.238;2024-03-29T23:52:21;8.00;99.90
21001;DHT22;10658;50.920;12.238;2024-03-29T23:56:21;8.00;99.90
